sensor_id;sensor_type;location;lat;lon;timestamp;P1;durP1;ratioP1;P2;durP2;ratioP2
75785;SDS011;64402;44.708;37.644;2024-02-15T00:00:11;37.10;;;8.68;;
75785;SDS011;64402;44.708;37.644;2024-02-15T00:02:38;15.65;;;7.88;;
75785;SDS011;64402;44.708;37.644;2024-02-15T00:05:04;15.95;;;8.05;;
75785;SDS011;64402;44.708;37.644;2024-02-15T00:07:31;17.13;;;8.43;;
75785;SDS011;64402;44.708;37.644;2024-02-15T00:09:57;18.67;;;8.32;;
75785;SDS011;64402;44.708;37.644;2024-02-15T00:12:24;17.80;;;8.88;;
75785;SDS011;64402;44.708;37.644;2024-02-15T00:14:50;17.05;;;8.95;;
75785;SDS011;64402;44.708;37.644;2024-02-15T00:17:16;16.88;;;7.68;;
75785;SDS011;64402;44.708;37.644;2024-02-15T00:19:43;18.48;;;7.93;;
75785;SDS011;64402;44.708;37.644;2024-02-15T00:22:09;17.77;;;8.07;;
75785;SDS011;64402;44.708;37.644;2024-02-15T00:24:39;16.13;;;8.38;;
75785;SDS011;64402;44.708;37.644;2024-02-15T00:27:07;17.92;;;8.25;;
75785;SDS011;64402;44.708;37.644;2024-02-15T00:29:33;15.10;;;8.20;;
75785;SDS011;64402;44.708;37.644;2024-02-15T00:32:00;15.27;;;8.88;;
75785;SDS011;64402;44.708;37.644;2024-02-15T00:34:26;19.10;;;8.45;;
75785;SDS011;64402;44.708;37.644;2024-02-15T00:36:52;19.30;;;8.40;;
75785;SDS011;64402;44.708;37.644;2024-02-15T00:39:19;15.95;;;8.27;;
75785;SDS011;64402;44.708;37.644;2024-02-15T00:41:45;15.65;;;7.90;;
75785;SDS011;64402;44.708;37.644;2024-02-15T00:44:12;17.20;;;7.97;;
75785;SDS011;64402;44.708;37.644;2024-02-15T00:46:38;15.82;;;8.10;;
75785;SDS011;64402;44.708;37.644;2024-02-15T00:49:06;18.52;;;7.97;;
75785;SDS011;64402;44.708;37.644;2024-02-15T00:51:33;15.07;;;7.82;;
75785;SDS011;64402;44.708;37.644;2024-02-15T00:54:01;16.98;;;8.05;;
75785;SDS011;64402;44.708;37.644;2024-02-15T00:56:28;19.17;;;8.20;;
75785;SDS011;64402;44.708;37.644;2024-02-15T00:59:01;17.55;;;8.23;;
75785;SDS011;64402;44.708;37.644;2024-02-15T01:01:28;18.40;;;8.05;;
75785;SDS011;64402;44.708;37.644;2024-02-15T01:03:55;15.05;;;8.27;;
75785;SDS011;64402;44.708;37.644;2024-02-15T01:06:21;17.90;;;7.72;;
75785;SDS011;64402;44.708;37.644;2024-02-15T01:08:47;18.15;;;7.65;;
75785;SDS011;64402;44.708;37.644;2024-02-15T01:11:13;15.45;;;8.23;;
75785;SDS011;64402;44.708;37.644;2024-02-15T01:13:40;16.98;;;8.88;;
75785;SDS011;64402;44.708;37.644;2024-02-15T01:16:06;18.05;;;8.88;;
75785;SDS011;64402;44.708;37.644;2024-02-15T01:21:00;15.60;;;8.05;;
75785;SDS011;64402;44.708;37.644;2024-02-15T01:23:26;18.42;;;8.13;;
75785;SDS011;64402;44.708;37.644;2024-02-15T01:25:52;20.83;;;8.38;;
75785;SDS011;64402;44.708;37.644;2024-02-15T01:28:18;16.95;;;8.15;;
75785;SDS011;64402;44.708;37.644;2024-02-15T01:30:45;15.55;;;8.18;;
75785;SDS011;64402;44.708;37.644;2024-02-15T01:33:12;15.25;;;8.48;;
75785;SDS011;64402;44.708;37.644;2024-02-15T01:35:38;16.40;;;8.88;;
75785;SDS011;64402;44.708;37.644;2024-02-15T01:38:05;16.10;;;7.80;;
75785;SDS011;64402;44.708;37.644;2024-02-15T01:40:31;17.23;;;8.55;;
75785;SDS011;64402;44.708;37.644;2024-02-15T01:42:57;16.77;;;8.88;;
75785;SDS011;64402;44.708;37.644;2024-02-15T01:45:24;15.93;;;8.55;;
75785;SDS011;64402;44.708;37.644;2024-02-15T01:47:51;14.95;;;9.07;;
75785;SDS011;64402;44.708;37.644;2024-02-15T01:50:19;17.30;;;8.45;;
75785;SDS011;64402;44.708;37.644;2024-02-15T01:52:47;18.23;;;8.77;;
75785;SDS011;64402;44.708;37.644;2024-02-15T01:55:15;17.80;;;8.70;;
75785;SDS011;64402;44.708;37.644;2024-02-15T01:57:44;18.80;;;8.30;;
75785;SDS011;64402;44.708;37.644;2024-02-15T02:00:13;18.60;;;8.93;;
75785;SDS011;64402;44.708;37.644;2024-02-15T02:02:43;16.75;;;9.13;;
75785;SDS011;64402;44.708;37.644;2024-02-15T02:05:10;16.30;;;8.38;;
75785;SDS011;64402;44.708;37.644;2024-02-15T02:07:37;15.95;;;8.43;;
75785;SDS011;64402;44.708;37.644;2024-02-15T02:10:03;16.15;;;9.00;;
75785;SDS011;64402;44.708;37.644;2024-02-15T02:12:30;18.17;;;9.15;;
75785;SDS011;64402;44.708;37.644;2024-02-15T02:14:57;15.88;;;8.98;;
75785;SDS011;64402;44.708;37.644;2024-02-15T02:17:23;18.95;;;8.98;;
75785;SDS011;64402;44.708;37.644;2024-02-15T02:19:49;27.08;;;9.60;;
75785;SDS011;64402;44.708;37.644;2024-02-15T02:22:16;21.85;;;11.20;;
75785;SDS011;64402;44.708;37.644;2024-02-15T02:27:36;17.67;;;10.02;;
75785;SDS011;64402;44.708;37.644;2024-02-15T02:30:03;19.85;;;9.30;;
75785;SDS011;64402;44.708;37.644;2024-02-15T02:32:43;18.48;;;10.32;;
75785;SDS011;64402;44.708;37.644;2024-02-15T02:35:10;18.80;;;10.13;;
75785;SDS011;64402;44.708;37.644;2024-02-15T02:37:41;18.20;;;10.00;;
75785;SDS011;64402;44.708;37.644;2024-02-15T02:40:08;20.75;;;9.80;;
75785;SDS011;64402;44.708;37.644;2024-02-15T02:42:36;17.00;;;10.48;;
75785;SDS011;64402;44.708;37.644;2024-02-15T02:45:12;21.88;;;11.18;;
75785;SDS011;64402;44.708;37.644;2024-02-15T02:47:38;19.83;;;10.05;;
75785;SDS011;64402;44.708;37.644;2024-02-15T02:50:04;20.80;;;11.27;;
75785;SDS011;64402;44.708;37.644;2024-02-15T02:52:31;19.98;;;11.63;;
75785;SDS011;64402;44.708;37.644;2024-02-15T02:54:57;19.40;;;11.35;;
75785;SDS011;64402;44.708;37.644;2024-02-15T02:57:23;22.83;;;11.02;;
75785;SDS011;64402;44.708;37.644;2024-02-15T02:59:49;23.75;;;11.32;;
75785;SDS011;64402;44.708;37.644;2024-02-15T03:02:17;20.98;;;11.55;;
75785;SDS011;64402;44.708;37.644;2024-02-15T03:04:43;18.98;;;11.98;;
75785;SDS011;64402;44.708;37.644;2024-02-15T03:07:09;18.92;;;11.15;;
75785;SDS011;64402;44.708;37.644;2024-02-15T03:09:35;20.73;;;12.25;;
75785;SDS011;64402;44.708;37.644;2024-02-15T03:12:03;26.23;;;12.02;;
75785;SDS011;64402;44.708;37.644;2024-02-15T03:14:29;21.17;;;12.55;;
75785;SDS011;64402;44.708;37.644;2024-02-15T03:16:56;20.20;;;12.32;;
75785;SDS011;64402;44.708;37.644;2024-02-15T03:19:22;20.95;;;12.73;;
75785;SDS011;64402;44.708;37.644;2024-02-15T03:21:49;21.27;;;12.63;;
75785;SDS011;64402;44.708;37.644;2024-02-15T03:24:15;20.65;;;12.38;;
75785;SDS011;64402;44.708;37.644;2024-02-15T03:26:41;22.25;;;13.45;;
75785;SDS011;64402;44.708;37.644;2024-02-15T03:29:08;21.85;;;12.77;;
75785;SDS011;64402;44.708;37.644;2024-02-15T03:31:35;23.48;;;13.75;;
75785;SDS011;64402;44.708;37.644;2024-02-15T03:34:03;26.13;;;13.70;;
75785;SDS011;64402;44.708;37.644;2024-02-15T03:36:29;29.13;;;14.50;;
75785;SDS011;64402;44.708;37.644;2024-02-15T03:38:55;25.83;;;14.32;;
75785;SDS011;64402;44.708;37.644;2024-02-15T03:41:22;23.58;;;14.27;;
75785;SDS011;64402;44.708;37.644;2024-02-15T03:43:48;25.67;;;13.80;;
75785;SDS011;64402;44.708;37.644;2024-02-15T03:46:14;26.88;;;14.40;;
75785;SDS011;64402;44.708;37.644;2024-02-15T03:48:42;27.73;;;14.98;;
75785;SDS011;64402;44.708;37.644;2024-02-15T03:51:18;27.05;;;14.07;;
75785;SDS011;64402;44.708;37.644;2024-02-15T03:53:46;25.45;;;14.32;;
75785;SDS011;64402;44.708;37.644;2024-02-15T03:56:14;25.08;;;14.13;;
75785;SDS011;64402;44.708;37.644;2024-02-15T03:58:40;26.73;;;15.18;;
75785;SDS011;64402;44.708;37.644;2024-02-15T04:01:06;34.38;;;16.35;;
75785;SDS011;64402;44.708;37.644;2024-02-15T04:03:35;27.65;;;15.25;;
75785;SDS011;64402;44.708;37.644;2024-02-15T04:06:01;27.70;;;14.27;;
75785;SDS011;64402;44.708;37.644;2024-02-15T04:08:28;24.77;;;15.40;;
75785;SDS011;64402;44.708;37.644;2024-02-15T04:10:54;28.48;;;15.10;;
75785;SDS011;64402;44.708;37.644;2024-02-15T04:13:20;30.15;;;16.40;;
75785;SDS011;64402;44.708;37.644;2024-02-15T04:15:46;32.50;;;15.52;;
75785;SDS011;64402;44.708;37.644;2024-02-15T04:18:15;32.67;;;16.42;;
75785;SDS011;64402;44.708;37.644;2024-02-15T04:20:41;28.60;;;15.57;;
75785;SDS011;64402;44.708;37.644;2024-02-15T04:23:12;28.85;;;16.13;;
75785;SDS011;64402;44.708;37.644;2024-02-15T04:25:38;26.50;;;16.00;;
75785;SDS011;64402;44.708;37.644;2024-02-15T04:30:34;28.25;;;15.55;;
75785;SDS011;64402;44.708;37.644;2024-02-15T04:33:04;29.17;;;16.52;;
75785;SDS011;64402;44.708;37.644;2024-02-15T04:35:34;29.27;;;16.02;;
75785;SDS011;64402;44.708;37.644;2024-02-15T04:38:01;28.60;;;15.85;;
75785;SDS011;64402;44.708;37.644;2024-02-15T04:40:29;30.48;;;15.65;;
75785;SDS011;64402;44.708;37.644;2024-02-15T04:42:55;26.70;;;14.50;;
75785;SDS011;64402;44.708;37.644;2024-02-15T04:45:23;27.35;;;15.18;;
75785;SDS011;64402;44.708;37.644;2024-02-15T04:47:50;31.70;;;14.98;;
75785;SDS011;64402;44.708;37.644;2024-02-15T04:50:18;29.33;;;16.08;;
75785;SDS011;64402;44.708;37.644;2024-02-15T04:52:44;30.27;;;14.75;;
75785;SDS011;64402;44.708;37.644;2024-02-15T04:55:12;29.20;;;17.35;;
75785;SDS011;64402;44.708;37.644;2024-02-15T04:57:38;29.38;;;15.65;;
75785;SDS011;64402;44.708;37.644;2024-02-15T05:00:06;28.63;;;14.70;;
75785;SDS011;64402;44.708;37.644;2024-02-15T05:02:37;30.50;;;14.52;;
75785;SDS011;64402;44.708;37.644;2024-02-15T05:05:06;25.88;;;15.80;;
75785;SDS011;64402;44.708;37.644;2024-02-15T05:07:34;30.52;;;15.48;;
75785;SDS011;64402;44.708;37.644;2024-02-15T05:10:05;30.40;;;15.75;;
75785;SDS011;64402;44.708;37.644;2024-02-15T05:12:33;27.90;;;15.07;;
75785;SDS011;64402;44.708;37.644;2024-02-15T05:14:59;30.20;;;15.30;;
75785;SDS011;64402;44.708;37.644;2024-02-15T05:17:26;31.63;;;15.38;;
75785;SDS011;64402;44.708;37.644;2024-02-15T05:19:55;28.90;;;15.55;;
75785;SDS011;64402;44.708;37.644;2024-02-15T05:22:25;30.83;;;15.13;;
75785;SDS011;64402;44.708;37.644;2024-02-15T05:24:54;28.25;;;16.05;;
75785;SDS011;64402;44.708;37.644;2024-02-15T05:27:21;29.35;;;15.57;;
75785;SDS011;64402;44.708;37.644;2024-02-15T05:29:49;31.58;;;16.10;;
75785;SDS011;64402;44.708;37.644;2024-02-15T05:32:18;27.80;;;15.00;;
75785;SDS011;64402;44.708;37.644;2024-02-15T05:34:46;29.08;;;15.18;;
75785;SDS011;64402;44.708;37.644;2024-02-15T05:37:14;29.73;;;15.52;;
75785;SDS011;64402;44.708;37.644;2024-02-15T05:39:41;34.33;;;16.20;;
75785;SDS011;64402;44.708;37.644;2024-02-15T05:42:07;26.02;;;14.80;;
75785;SDS011;64402;44.708;37.644;2024-02-15T05:44:35;28.55;;;15.10;;
75785;SDS011;64402;44.708;37.644;2024-02-15T05:47:02;28.85;;;14.65;;
75785;SDS011;64402;44.708;37.644;2024-02-15T05:49:28;36.75;;;14.38;;
75785;SDS011;64402;44.708;37.644;2024-02-15T05:51:54;28.58;;;15.60;;
75785;SDS011;64402;44.708;37.644;2024-02-15T05:54:20;30.00;;;15.98;;
75785;SDS011;64402;44.708;37.644;2024-02-15T05:56:50;29.25;;;15.65;;
75785;SDS011;64402;44.708;37.644;2024-02-15T05:59:19;28.35;;;15.10;;
75785;SDS011;64402;44.708;37.644;2024-02-15T06:01:46;29.35;;;15.13;;
75785;SDS011;64402;44.708;37.644;2024-02-15T06:04:15;26.05;;;15.35;;
75785;SDS011;64402;44.708;37.644;2024-02-15T06:06:42;28.85;;;14.70;;
75785;SDS011;64402;44.708;37.644;2024-02-15T06:09:08;31.27;;;14.07;;
75785;SDS011;64402;44.708;37.644;2024-02-15T06:11:34;27.75;;;13.77;;
75785;SDS011;64402;44.708;37.644;2024-02-15T06:14:02;23.00;;;12.93;;
75785;SDS011;64402;44.708;37.644;2024-02-15T06:16:29;27.33;;;14.73;;
75785;SDS011;64402;44.708;37.644;2024-02-15T06:18:55;25.88;;;13.77;;
75785;SDS011;64402;44.708;37.644;2024-02-15T06:21:21;27.88;;;14.63;;
75785;SDS011;64402;44.708;37.644;2024-02-15T06:26:16;25.23;;;13.60;;
75785;SDS011;64402;44.708;37.644;2024-02-15T06:28:42;30.15;;;14.27;;
75785;SDS011;64402;44.708;37.644;2024-02-15T06:31:27;30.60;;;13.90;;
75785;SDS011;64402;44.708;37.644;2024-02-15T06:34:11;28.90;;;13.30;;
75785;SDS011;64402;44.708;37.644;2024-02-15T06:36:56;26.85;;;13.30;;
75785;SDS011;64402;44.708;37.644;2024-02-15T06:39:41;23.88;;;13.25;;
75785;SDS011;64402;44.708;37.644;2024-02-15T06:42:11;24.77;;;13.05;;
75785;SDS011;64402;44.708;37.644;2024-02-15T06:44:42;26.23;;;12.93;;
75785;SDS011;64402;44.708;37.644;2024-02-15T06:47:08;26.15;;;13.02;;
75785;SDS011;64402;44.708;37.644;2024-02-15T06:49:38;29.27;;;12.55;;
75785;SDS011;64402;44.708;37.644;2024-02-15T06:52:06;28.27;;;12.13;;
75785;SDS011;64402;44.708;37.644;2024-02-15T06:54:33;34.05;;;13.88;;
75785;SDS011;64402;44.708;37.644;2024-02-15T06:57:01;26.13;;;12.68;;
75785;SDS011;64402;44.708;37.644;2024-02-15T06:59:28;27.27;;;12.73;;
75785;SDS011;64402;44.708;37.644;2024-02-15T07:01:54;26.42;;;12.93;;
75785;SDS011;64402;44.708;37.644;2024-02-15T07:04:21;30.23;;;12.45;;
75785;SDS011;64402;44.708;37.644;2024-02-15T07:06:47;28.20;;;12.82;;
75785;SDS011;64402;44.708;37.644;2024-02-15T07:09:15;25.60;;;12.77;;
75785;SDS011;64402;44.708;37.644;2024-02-15T07:11:41;25.60;;;12.55;;
75785;SDS011;64402;44.708;37.644;2024-02-15T07:14:07;27.40;;;11.82;;
75785;SDS011;64402;44.708;37.644;2024-02-15T07:16:34;23.85;;;11.40;;
75785;SDS011;64402;44.708;37.644;2024-02-15T07:19:01;27.83;;;11.48;;
75785;SDS011;64402;44.708;37.644;2024-02-15T07:21:28;25.67;;;12.05;;
75785;SDS011;64402;44.708;37.644;2024-02-15T07:26:25;21.88;;;11.20;;
75785;SDS011;64402;44.708;37.644;2024-02-15T07:28:52;32.25;;;12.23;;
75785;SDS011;64402;44.708;37.644;2024-02-15T07:31:19;24.15;;;11.35;;
75785;SDS011;64402;44.708;37.644;2024-02-15T07:33:51;27.20;;;11.98;;
75785;SDS011;64402;44.708;37.644;2024-02-15T07:36:21;20.58;;;11.25;;
75785;SDS011;64402;44.708;37.644;2024-02-15T07:38:51;21.85;;;11.48;;
75785;SDS011;64402;44.708;37.644;2024-02-15T07:41:20;25.00;;;12.27;;
75785;SDS011;64402;44.708;37.644;2024-02-15T07:43:48;20.70;;;11.20;;
75785;SDS011;64402;44.708;37.644;2024-02-15T07:46:14;20.25;;;11.13;;
75785;SDS011;64402;44.708;37.644;2024-02-15T07:48:44;21.60;;;11.10;;
75785;SDS011;64402;44.708;37.644;2024-02-15T07:51:12;29.55;;;11.20;;
75785;SDS011;64402;44.708;37.644;2024-02-15T07:53:40;22.33;;;10.32;;
75785;SDS011;64402;44.708;37.644;2024-02-15T07:56:08;21.15;;;10.27;;
75785;SDS011;64402;44.708;37.644;2024-02-15T07:58:42;21.25;;;10.07;;
75785;SDS011;64402;44.708;37.644;2024-02-15T08:01:13;20.70;;;9.63;;
75785;SDS011;64402;44.708;37.644;2024-02-15T08:03:40;24.95;;;10.68;;
75785;SDS011;64402;44.708;37.644;2024-02-15T08:06:12;22.67;;;9.88;;
75785;SDS011;64402;44.708;37.644;2024-02-15T08:08:40;18.98;;;9.40;;
75785;SDS011;64402;44.708;37.644;2024-02-15T08:11:08;27.48;;;9.10;;
75785;SDS011;64402;44.708;37.644;2024-02-15T08:13:43;18.30;;;8.48;;
75785;SDS011;64402;44.708;37.644;2024-02-15T08:16:11;17.02;;;8.65;;
75785;SDS011;64402;44.708;37.644;2024-02-15T08:18:38;24.25;;;8.93;;
75785;SDS011;64402;44.708;37.644;2024-02-15T08:21:05;22.77;;;8.15;;
75785;SDS011;64402;44.708;37.644;2024-02-15T08:23:31;16.98;;;8.40;;
75785;SDS011;64402;44.708;37.644;2024-02-15T08:25:58;18.42;;;7.88;;
75785;SDS011;64402;44.708;37.644;2024-02-15T08:28:24;16.27;;;7.18;;
75785;SDS011;64402;44.708;37.644;2024-02-15T08:30:52;19.95;;;8.07;;
75785;SDS011;64402;44.708;37.644;2024-02-15T08:33:18;17.60;;;8.15;;
75785;SDS011;64402;44.708;37.644;2024-02-15T08:35:45;20.83;;;7.40;;
75785;SDS011;64402;44.708;37.644;2024-02-15T08:38:11;21.00;;;7.18;;
75785;SDS011;64402;44.708;37.644;2024-02-15T08:40:37;16.65;;;6.75;;
75785;SDS011;64402;44.708;37.644;2024-02-15T08:43:04;18.00;;;6.63;;
75785;SDS011;64402;44.708;37.644;2024-02-15T08:45:30;13.60;;;6.40;;
75785;SDS011;64402;44.708;37.644;2024-02-15T08:47:56;20.60;;;6.63;;
75785;SDS011;64402;44.708;37.644;2024-02-15T08:50:22;16.80;;;6.40;;
75785;SDS011;64402;44.708;37.644;2024-02-15T08:52:49;16.42;;;6.38;;
75785;SDS011;64402;44.708;37.644;2024-02-15T08:55:15;19.75;;;6.35;;
75785;SDS011;64402;44.708;37.644;2024-02-15T08:57:42;17.38;;;6.18;;
75785;SDS011;64402;44.708;37.644;2024-02-15T09:00:12;17.95;;;5.78;;
75785;SDS011;64402;44.708;37.644;2024-02-15T09:02:39;13.32;;;5.85;;
75785;SDS011;64402;44.708;37.644;2024-02-15T09:05:06;18.38;;;5.80;;
75785;SDS011;64402;44.708;37.644;2024-02-15T09:07:32;17.08;;;5.65;;
75785;SDS011;64402;44.708;37.644;2024-02-15T09:09:59;16.17;;;5.40;;
75785;SDS011;64402;44.708;37.644;2024-02-15T09:12:25;13.18;;;5.53;;
75785;SDS011;64402;44.708;37.644;2024-02-15T09:14:51;15.25;;;5.70;;
75785;SDS011;64402;44.708;37.644;2024-02-15T09:17:17;15.18;;;5.63;;
75785;SDS011;64402;44.708;37.644;2024-02-15T09:19:46;13.80;;;5.32;;
75785;SDS011;64402;44.708;37.644;2024-02-15T09:22:15;13.75;;;5.53;;
75785;SDS011;64402;44.708;37.644;2024-02-15T09:24:41;14.27;;;8.23;;
75785;SDS011;64402;44.708;37.644;2024-02-15T09:27:07;15.13;;;6.00;;
75785;SDS011;64402;44.708;37.644;2024-02-15T09:29:38;13.55;;;5.10;;
75785;SDS011;64402;44.708;37.644;2024-02-15T09:32:06;13.00;;;5.00;;
75785;SDS011;64402;44.708;37.644;2024-02-15T09:34:32;15.80;;;4.53;;
75785;SDS011;64402;44.708;37.644;2024-02-15T09:36:58;12.18;;;5.07;;
75785;SDS011;64402;44.708;37.644;2024-02-15T09:39:25;12.02;;;4.70;;
75785;SDS011;64402;44.708;37.644;2024-02-15T09:41:51;14.18;;;4.88;;
75785;SDS011;64402;44.708;37.644;2024-02-15T09:44:26;11.52;;;4.70;;
75785;SDS011;64402;44.708;37.644;2024-02-15T09:47:03;23.17;;;5.28;;
75785;SDS011;64402;44.708;37.644;2024-02-15T09:49:36;13.20;;;4.53;;
75785;SDS011;64402;44.708;37.644;2024-02-15T09:52:07;12.38;;;4.70;;
75785;SDS011;64402;44.708;37.644;2024-02-15T09:54:41;22.75;;;4.80;;
75785;SDS011;64402;44.708;37.644;2024-02-15T09:57:11;9.73;;;4.30;;
75785;SDS011;64402;44.708;37.644;2024-02-15T09:59:37;8.77;;;4.35;;
75785;SDS011;64402;44.708;37.644;2024-02-15T10:02:05;11.45;;;4.78;;
75785;SDS011;64402;44.708;37.644;2024-02-15T10:04:39;11.73;;;4.93;;
75785;SDS011;64402;44.708;37.644;2024-02-15T10:07:05;13.05;;;5.15;;
75785;SDS011;64402;44.708;37.644;2024-02-15T10:09:34;20.45;;;5.07;;
75785;SDS011;64402;44.708;37.644;2024-02-15T10:12:02;8.82;;;4.30;;
75785;SDS011;64402;44.708;37.644;2024-02-15T10:14:32;12.70;;;4.35;;
75785;SDS011;64402;44.708;37.644;2024-02-15T10:17:08;12.63;;;4.70;;
75785;SDS011;64402;44.708;37.644;2024-02-15T10:19:37;10.48;;;4.45;;
75785;SDS011;64402;44.708;37.644;2024-02-15T10:22:08;15.23;;;4.45;;
75785;SDS011;64402;44.708;37.644;2024-02-15T10:24:35;9.60;;;4.22;;
75785;SDS011;64402;44.708;37.644;2024-02-15T10:29:36;18.30;;;4.18;;
75785;SDS011;64402;44.708;37.644;2024-02-15T10:32:03;16.65;;;5.00;;
75785;SDS011;64402;44.708;37.644;2024-02-15T10:34:38;8.82;;;4.32;;
75785;SDS011;64402;44.708;37.644;2024-02-15T10:37:13;24.00;;;4.22;;
75785;SDS011;64402;44.708;37.644;2024-02-15T10:39:44;10.40;;;4.40;;
75785;SDS011;64402;44.708;37.644;2024-02-15T10:42:10;12.98;;;4.35;;
75785;SDS011;64402;44.708;37.644;2024-02-15T10:44:38;15.27;;;3.97;;
75785;SDS011;64402;44.708;37.644;2024-02-15T10:47:06;16.08;;;4.35;;
75785;SDS011;64402;44.708;37.644;2024-02-15T10:49:34;16.70;;;4.70;;
75785;SDS011;64402;44.708;37.644;2024-02-15T10:52:04;11.50;;;4.75;;
75785;SDS011;64402;44.708;37.644;2024-02-15T10:57:04;16.27;;;5.38;;
75785;SDS011;64402;44.708;37.644;2024-02-15T10:59:32;13.88;;;4.30;;
75785;SDS011;64402;44.708;37.644;2024-02-15T11:04:55;7.60;;;3.92;;
75785;SDS011;64402;44.708;37.644;2024-02-15T11:07:29;10.45;;;4.40;;
75785;SDS011;64402;44.708;37.644;2024-02-15T11:09:57;13.05;;;4.00;;
75785;SDS011;64402;44.708;37.644;2024-02-15T11:12:25;9.95;;;4.03;;
75785;SDS011;64402;44.708;37.644;2024-02-15T11:14:52;14.38;;;4.30;;
75785;SDS011;64402;44.708;37.644;2024-02-15T11:23:00;11.20;;;4.05;;
75785;SDS011;64402;44.708;37.644;2024-02-15T11:25:36;11.45;;;4.00;;
75785;SDS011;64402;44.708;37.644;2024-02-15T11:30:49;12.75;;;4.10;;
75785;SDS011;64402;44.708;37.644;2024-02-15T11:33:34;12.95;;;4.20;;
75785;SDS011;64402;44.708;37.644;2024-02-15T11:36:05;17.13;;;4.30;;
75785;SDS011;64402;44.708;37.644;2024-02-15T11:38:38;11.27;;;4.43;;
75785;SDS011;64402;44.708;37.644;2024-02-15T11:46:18;20.50;;;4.75;;
75785;SDS011;64402;44.708;37.644;2024-02-15T11:48:48;11.20;;;4.32;;
75785;SDS011;64402;44.708;37.644;2024-02-15T11:51:24;13.13;;;4.28;;
75785;SDS011;64402;44.708;37.644;2024-02-15T11:54:03;16.83;;;3.92;;
75785;SDS011;64402;44.708;37.644;2024-02-15T11:59:42;15.18;;;4.40;;
75785;SDS011;64402;44.708;37.644;2024-02-15T12:02:27;10.60;;;4.15;;
75785;SDS011;64402;44.708;37.644;2024-02-15T12:05:13;15.77;;;4.95;;
75785;SDS011;64402;44.708;37.644;2024-02-15T12:07:57;12.32;;;4.43;;
75785;SDS011;64402;44.708;37.644;2024-02-15T12:10:42;9.50;;;4.30;;
75785;SDS011;64402;44.708;37.644;2024-02-15T12:13:27;11.40;;;3.97;;
75785;SDS011;64402;44.708;37.644;2024-02-15T12:16:15;10.45;;;4.25;;
75785;SDS011;64402;44.708;37.644;2024-02-15T12:19:04;11.68;;;4.30;;
75785;SDS011;64402;44.708;37.644;2024-02-15T12:21:30;10.88;;;4.18;;
75785;SDS011;64402;44.708;37.644;2024-02-15T12:23:59;16.65;;;4.90;;
75785;SDS011;64402;44.708;37.644;2024-02-15T12:26:25;10.98;;;4.30;;
75785;SDS011;64402;44.708;37.644;2024-02-15T12:28:53;11.85;;;4.40;;
75785;SDS011;64402;44.708;37.644;2024-02-15T12:31:26;14.93;;;4.68;;
75785;SDS011;64402;44.708;37.644;2024-02-15T12:34:03;11.18;;;3.72;;
75785;SDS011;64402;44.708;37.644;2024-02-15T12:36:33;12.65;;;3.83;;
75785;SDS011;64402;44.708;37.644;2024-02-15T12:39:02;10.80;;;3.55;;
75785;SDS011;64402;44.708;37.644;2024-02-15T12:41:40;9.60;;;3.70;;
75785;SDS011;64402;44.708;37.644;2024-02-15T12:44:15;8.48;;;3.60;;
75785;SDS011;64402;44.708;37.644;2024-02-15T12:46:42;10.35;;;3.60;;
75785;SDS011;64402;44.708;37.644;2024-02-15T12:49:27;17.85;;;3.78;;
75785;SDS011;64402;44.708;37.644;2024-02-15T12:52:33;9.23;;;4.07;;
75785;SDS011;64402;44.708;37.644;2024-02-15T12:55:10;13.40;;;3.80;;
75785;SDS011;64402;44.708;37.644;2024-02-15T12:57:38;10.05;;;3.92;;
75785;SDS011;64402;44.708;37.644;2024-02-15T13:00:10;10.93;;;3.47;;
75785;SDS011;64402;44.708;37.644;2024-02-15T13:02:39;10.60;;;3.72;;
75785;SDS011;64402;44.708;37.644;2024-02-15T13:05:06;11.20;;;3.65;;
75785;SDS011;64402;44.708;37.644;2024-02-15T13:07:36;10.15;;;3.90;;
75785;SDS011;64402;44.708;37.644;2024-02-15T13:10:03;10.85;;;4.03;;
75785;SDS011;64402;44.708;37.644;2024-02-15T13:12:35;8.68;;;3.63;;
75785;SDS011;64402;44.708;37.644;2024-02-15T13:15:03;9.65;;;3.80;;
75785;SDS011;64402;44.708;37.644;2024-02-15T13:17:32;12.88;;;3.83;;
75785;SDS011;64402;44.708;37.644;2024-02-15T13:20:02;10.63;;;3.92;;
75785;SDS011;64402;44.708;37.644;2024-02-15T13:22:30;10.15;;;4.18;;
75785;SDS011;64402;44.708;37.644;2024-02-15T13:24:58;14.63;;;4.10;;
75785;SDS011;64402;44.708;37.644;2024-02-15T13:27:24;7.97;;;3.58;;
75785;SDS011;64402;44.708;37.644;2024-02-15T13:29:51;11.80;;;3.75;;
75785;SDS011;64402;44.708;37.644;2024-02-15T13:32:19;12.05;;;4.10;;
75785;SDS011;64402;44.708;37.644;2024-02-15T13:34:49;10.90;;;3.83;;
75785;SDS011;64402;44.708;37.644;2024-02-15T13:37:22;13.10;;;4.30;;
75785;SDS011;64402;44.708;37.644;2024-02-15T13:39:52;16.63;;;3.90;;
75785;SDS011;64402;44.708;37.644;2024-02-15T13:42:29;14.88;;;4.03;;
75785;SDS011;64402;44.708;37.644;2024-02-15T13:44:58;12.63;;;3.55;;
75785;SDS011;64402;44.708;37.644;2024-02-15T13:47:24;12.50;;;4.05;;
75785;SDS011;64402;44.708;37.644;2024-02-15T13:49:51;13.27;;;4.32;;
75785;SDS011;64402;44.708;37.644;2024-02-15T13:52:17;11.30;;;4.07;;
75785;SDS011;64402;44.708;37.644;2024-02-15T13:54:43;11.40;;;4.20;;
75785;SDS011;64402;44.708;37.644;2024-02-15T13:57:09;26.08;;;4.90;;
75785;SDS011;64402;44.708;37.644;2024-02-15T13:59:36;16.52;;;5.10;;
75785;SDS011;64402;44.708;37.644;2024-02-15T14:02:03;22.00;;;5.22;;
75785;SDS011;64402;44.708;37.644;2024-02-15T14:04:29;16.00;;;4.47;;
75785;SDS011;64402;44.708;37.644;2024-02-15T14:06:57;9.60;;;4.10;;
75785;SDS011;64402;44.708;37.644;2024-02-15T14:09:23;12.32;;;4.35;;
75785;SDS011;64402;44.708;37.644;2024-02-15T14:11:51;11.10;;;3.80;;
75785;SDS011;64402;44.708;37.644;2024-02-15T14:14:18;7.47;;;3.30;;
75785;SDS011;64402;44.708;37.644;2024-02-15T14:16:44;14.63;;;4.03;;
75785;SDS011;64402;44.708;37.644;2024-02-15T14:19:10;18.92;;;3.92;;
75785;SDS011;64402;44.708;37.644;2024-02-15T14:21:38;11.02;;;4.25;;
75785;SDS011;64402;44.708;37.644;2024-02-15T14:24:06;12.70;;;4.30;;
75785;SDS011;64402;44.708;37.644;2024-02-15T14:26:34;11.65;;;4.38;;
75785;SDS011;64402;44.708;37.644;2024-02-15T14:29:01;11.90;;;3.90;;
75785;SDS011;64402;44.708;37.644;2024-02-15T14:31:28;9.75;;;4.03;;
75785;SDS011;64402;44.708;37.644;2024-02-15T14:34:13;9.18;;;3.83;;
75785;SDS011;64402;44.708;37.644;2024-02-15T14:36:43;13.38;;;4.20;;
75785;SDS011;64402;44.708;37.644;2024-02-15T14:39:09;9.68;;;4.00;;
75785;SDS011;64402;44.708;37.644;2024-02-15T14:41:36;8.90;;;3.85;;
75785;SDS011;64402;44.708;37.644;2024-02-15T14:44:03;12.50;;;6.15;;
75785;SDS011;64402;44.708;37.644;2024-02-15T14:46:31;16.27;;;6.07;;
75785;SDS011;64402;44.708;37.644;2024-02-15T14:49:00;14.38;;;4.68;;
75785;SDS011;64402;44.708;37.644;2024-02-15T14:51:28;14.35;;;4.63;;
75785;SDS011;64402;44.708;37.644;2024-02-15T14:53:55;13.15;;;4.40;;
75785;SDS011;64402;44.708;37.644;2024-02-15T14:56:21;16.75;;;4.47;;
75785;SDS011;64402;44.708;37.644;2024-02-15T14:58:47;13.57;;;4.63;;
75785;SDS011;64402;44.708;37.644;2024-02-15T15:01:13;12.32;;;4.47;;
75785;SDS011;64402;44.708;37.644;2024-02-15T15:03:39;12.50;;;4.82;;